createdAt,value
2023-03-07T00:00:01.964Z,16.70
2023-03-07T00:02:32.386Z,17.55
2023-03-07T00:04:59.860Z,17.75
2023-03-07T00:07:27.198Z,15.23
2023-03-07T00:09:54.469Z,16.73
2023-03-07T00:12:22.327Z,16.95
2023-03-07T00:14:49.721Z,15.48
2023-03-07T00:17:17.217Z,17.45
2023-03-07T00:19:44.827Z,16.75
2023-03-07T00:22:14.600Z,16.17
2023-03-07T00:24:42.374Z,14.75
2023-03-07T00:27:10.298Z,15.07
2023-03-07T00:29:37.769Z,15.38
2023-03-07T00:32:05.435Z,15.23
2023-03-07T00:34:32.790Z,16.17
2023-03-07T00:37:00.106Z,15.50
2023-03-07T00:39:27.474Z,15.30
2023-03-07T00:41:54.939Z,16.25
2023-03-07T00:44:22.656Z,14.15
2023-03-07T00:46:50.002Z,15.88
2023-03-07T00:49:17.729Z,16.83
2023-03-07T00:51:45.136Z,16.23
2023-03-07T00:54:12.739Z,16.73
2023-03-07T00:56:40.541Z,15.40
2023-03-07T00:59:08.590Z,16.85
2023-03-07T01:01:36.509Z,16.48
2023-03-07T01:04:04.674Z,16.52
2023-03-07T01:06:33.275Z,15.38
2023-03-07T01:09:04.749Z,15.00
2023-03-07T01:11:33.817Z,15.85
2023-03-07T01:14:03.261Z,14.05
2023-03-07T01:16:33.763Z,16.45
2023-03-07T01:19:04.401Z,15.85
2023-03-07T01:21:38.231Z,15.50
2023-03-07T01:24:07.451Z,16.63
2023-03-07T01:26:35.362Z,17.33
2023-03-07T01:29:04.832Z,16.10
2023-03-07T01:31:35.691Z,16.52
2023-03-07T01:34:04.130Z,15.20
2023-03-07T01:36:35.546Z,15.07
2023-03-07T01:39:17.199Z,17.92
2023-03-07T01:41:55.695Z,16.48
2023-03-07T01:44:27.107Z,15.93
2023-03-07T01:46:59.995Z,17.27
2023-03-07T01:49:50.429Z,16.45
2023-03-07T01:52:23.109Z,16.65
2023-03-07T01:54:59.710Z,15.07
2023-03-07T01:57:32.579Z,16.42
2023-03-07T02:00:05.683Z,15.93
2023-03-07T02:02:43.813Z,16.10
2023-03-07T02:05:35.600Z,17.15
2023-03-07T02:08:04.249Z,16.02
2023-03-07T02:10:35.267Z,16.27
2023-03-07T02:13:03.522Z,14.35
2023-03-07T02:15:31.015Z,13.70
2023-03-07T02:17:59.049Z,16.73
2023-03-07T02:20:56.263Z,14.27
2023-03-07T02:23:48.952Z,14.60
2023-03-07T02:26:43.850Z,17.05
2023-03-07T02:29:12.186Z,15.93
2023-03-07T02:31:40.363Z,16.38
2023-03-07T02:34:23.180Z,16.50
2023-03-07T02:37:05.115Z,15.60
2023-03-07T02:39:33.805Z,16.17
2023-03-07T02:42:08.598Z,16.73
2023-03-07T02:44:46.649Z,17.48
2023-03-07T02:47:17.259Z,17.17
2023-03-07T02:49:44.929Z,14.77
2023-03-07T02:52:12.456Z,15.57
2023-03-07T02:54:40.119Z,17.30
2023-03-07T02:57:08.599Z,14.93
2023-03-07T02:59:36.214Z,16.80
2023-03-07T03:02:04.109Z,17.10
2023-03-07T03:04:31.523Z,17.98
2023-03-07T03:06:59.038Z,17.05
2023-03-07T03:09:26.439Z,16.65
2023-03-07T03:11:53.883Z,17.52
2023-03-07T03:14:24.860Z,16.60
2023-03-07T03:16:55.479Z,14.07
2023-03-07T03:20:02.488Z,15.98
2023-03-07T03:22:37.052Z,16.77
2023-03-07T03:25:10.063Z,18.17
2023-03-07T03:27:39.824Z,17.80
2023-03-07T03:30:09.990Z,17.45
2023-03-07T03:35:40.600Z,15.40
2023-03-07T03:38:10.964Z,15.45
2023-03-07T03:40:42.146Z,18.00
2023-03-07T03:43:09.854Z,16.40
2023-03-07T03:45:55.225Z,16.17
2023-03-07T03:48:30.005Z,17.33
2023-03-07T03:51:42.263Z,16.10
2023-03-07T03:54:12.473Z,17.65
2023-03-07T03:56:45.285Z,17.48
2023-03-07T03:59:31.590Z,17.73
2023-03-07T04:02:29.882Z,16.92
2023-03-07T04:05:02.709Z,14.90
2023-03-07T04:07:31.029Z,16.15
2023-03-07T04:10:09.904Z,17.67
2023-03-07T04:12:47.045Z,15.52
2023-03-07T04:15:18.750Z,15.88
2023-03-07T04:17:46.308Z,17.80
2023-03-07T04:20:17.584Z,15.90
2023-03-07T04:22:47.207Z,15.65
2023-03-07T04:25:32.493Z,17.08
2023-03-07T04:28:11.116Z,15.50
2023-03-07T04:34:27.354Z,14.52
2023-03-07T04:37:02.724Z,15.30
2023-03-07T04:39:39.383Z,16.80
2023-03-07T04:42:08.840Z,15.98
2023-03-07T04:44:37.463Z,14.73
2023-03-07T04:47:05.349Z,15.85
2023-03-07T04:49:35.834Z,15.40
2023-03-07T04:52:05.623Z,15.73
2023-03-07T04:54:33.447Z,15.20
2023-03-07T04:57:02.759Z,15.32
2023-03-07T04:59:30.486Z,15.93
2023-03-07T05:01:58.261Z,15.20
2023-03-07T05:04:26.033Z,15.75
2023-03-07T05:06:53.494Z,15.00
2023-03-07T05:09:21.093Z,15.35
2023-03-07T05:11:48.508Z,16.33
2023-03-07T05:14:16.077Z,14.68
2023-03-07T05:16:44.429Z,13.38
2023-03-07T05:19:13.496Z,13.55
2023-03-07T05:21:41.813Z,13.32
2023-03-07T05:24:10.210Z,14.18
2023-03-07T05:26:38.520Z,13.88
2023-03-07T05:29:06.261Z,14.27
2023-03-07T05:31:59.198Z,14.25
2023-03-07T05:34:27.279Z,13.18
2023-03-07T05:36:56.898Z,13.50
2023-03-07T05:39:25.405Z,12.32
2023-03-07T05:41:53.006Z,14.02
2023-03-07T05:44:21.257Z,13.07
2023-03-07T05:46:52.677Z,13.27
2023-03-07T05:49:20.799Z,13.07
2023-03-07T05:51:48.576Z,12.82
2023-03-07T05:57:59.239Z,13.30
2023-03-07T06:00:29.472Z,11.73
2023-03-07T06:03:03.340Z,12.82
2023-03-07T06:06:02.332Z,12.77
2023-03-07T06:08:33.405Z,11.70
2023-03-07T06:11:00.798Z,11.80
2023-03-07T06:14:29.733Z,11.20
2023-03-07T06:17:21.577Z,11.50
2023-03-07T06:20:22.699Z,10.75
2023-03-07T06:22:55.591Z,10.10
2023-03-07T06:25:23.304Z,9.68
2023-03-07T06:27:51.068Z,9.80
2023-03-07T06:30:51.825Z,10.48
2023-03-07T06:33:21.468Z,11.05
2023-03-07T06:35:48.919Z,10.70
2023-03-07T06:38:19.537Z,10.73
2023-03-07T06:40:56.880Z,9.50
2023-03-07T06:44:34.167Z,9.70
2023-03-07T06:47:01.988Z,10.38
2023-03-07T06:49:58.445Z,10.10
2023-03-07T06:52:38.932Z,9.20
2023-03-07T07:18:27.218Z,9.25
2023-03-07T07:21:11.475Z,8.98
2023-03-07T07:51:43.761Z,8.13
2023-03-07T08:55:36.281Z,4.63
2023-03-07T08:58:51.482Z,5.10
2023-03-07T09:07:07.638Z,5.10
2023-03-07T09:10:41.192Z,5.05
2023-03-07T09:13:51.020Z,4.75
2023-03-07T09:17:03.892Z,4.03
2023-03-07T09:26:39.337Z,4.50
2023-03-07T09:29:14.652Z,4.20
2023-03-07T09:31:45.112Z,3.83
2023-03-07T09:34:17.029Z,4.20
2023-03-07T09:37:48.056Z,4.85
2023-03-07T09:40:37.352Z,4.20
2023-03-07T09:43:26.206Z,4.32
2023-03-07T09:46:50.261Z,4.55
2023-03-07T09:49:34.133Z,3.75
2023-03-07T09:52:27.850Z,4.32
2023-03-07T09:55:14.172Z,4.43
2023-03-07T09:58:43.798Z,3.90
2023-03-07T10:13:32.942Z,4.60
2023-03-07T10:24:22.733Z,5.38
2023-03-07T10:27:23.386Z,5.20
2023-03-07T10:30:09.128Z,4.78
2023-03-07T10:37:09.671Z,5.00
2023-03-07T10:40:14.122Z,5.28
2023-03-07T10:43:01.803Z,5.40
2023-03-07T10:46:12.762Z,5.68
2023-03-07T10:49:33.370Z,5.50
2023-03-07T10:53:36.869Z,6.65
2023-03-07T10:56:17.489Z,5.10
2023-03-07T10:59:45.788Z,5.30
2023-03-07T11:02:25.453Z,5.60
2023-03-07T11:05:04.162Z,5.40
2023-03-07T11:07:36.507Z,4.55
2023-03-07T11:10:38.743Z,4.95
2023-03-07T11:13:20.681Z,4.88
2023-03-07T11:16:00.177Z,5.32
2023-03-07T11:18:46.019Z,5.03
2023-03-07T11:21:36.424Z,5.05
2023-03-07T11:24:07.200Z,5.38
2023-03-07T11:26:40.874Z,5.45
2023-03-07T11:29:15.224Z,5.03
2023-03-07T11:32:04.647Z,5.18
2023-03-07T11:34:50.130Z,4.93
2023-03-07T11:38:15.703Z,5.13
2023-03-07T11:41:07.890Z,5.25
2023-03-07T11:43:46.888Z,4.68
2023-03-07T11:46:44.796Z,4.63
2023-03-07T11:50:01.894Z,4.70
2023-03-07T11:52:44.161Z,4.93
2023-03-07T11:55:39.209Z,4.80
2023-03-07T11:58:57.235Z,4.30
2023-03-07T12:02:26.349Z,5.05
2023-03-07T12:05:38.551Z,5.28
2023-03-07T12:08:42.134Z,5.30
2023-03-07T12:11:38.984Z,5.03
2023-03-07T12:14:47.660Z,4.97
2023-03-07T12:17:24.506Z,4.50
2023-03-07T12:20:40.292Z,4.90
2023-03-07T12:23:16.388Z,5.32
2023-03-07T12:26:20.015Z,5.00
2023-03-07T12:29:28.165Z,4.63
2023-03-07T12:32:03.821Z,4.55
2023-03-07T12:35:07.006Z,5.00
2023-03-07T12:37:48.923Z,5.45
2023-03-07T12:40:26.717Z,4.93
2023-03-07T12:43:14.208Z,5.05
2023-03-07T12:46:43.144Z,5.10
2023-03-07T12:49:53.636Z,5.20
2023-03-07T12:52:36.747Z,5.25
2023-03-07T12:55:31.196Z,4.88
2023-03-07T12:58:46.366Z,5.22
2023-03-07T13:01:32.333Z,4.70
2023-03-07T13:04:47.543Z,4.80
2023-03-07T13:07:25.003Z,5.10
2023-03-07T13:09:57.037Z,4.75
2023-03-07T13:12:33.289Z,4.28
2023-03-07T13:15:01.400Z,4.70
2023-03-07T13:17:31.604Z,4.60
2023-03-07T13:20:15.476Z,5.38
2023-03-07T13:22:43.106Z,5.45
2023-03-07T13:25:43.946Z,4.85
2023-03-07T13:28:43.396Z,4.90
2023-03-07T13:31:28.107Z,4.97
2023-03-07T13:33:55.377Z,5.32
2023-03-07T13:36:38.672Z,5.15
2023-03-07T13:39:38.431Z,4.57
2023-03-07T13:42:44.061Z,4.85
2023-03-07T13:45:39.541Z,4.53
2023-03-07T13:48:26.878Z,4.35
2023-03-07T13:50:57.002Z,4.90
2023-03-07T13:53:41.609Z,4.90
2023-03-07T13:56:17.761Z,4.75
2023-03-07T13:59:14.906Z,5.10
2023-03-07T14:01:49.133Z,4.97
2023-03-07T14:04:54.267Z,4.60
2023-03-07T14:07:41.225Z,4.20
2023-03-07T14:10:30.990Z,5.55
2023-03-07T14:13:16.662Z,4.32
2023-03-07T14:16:27.112Z,4.60
2023-03-07T14:19:18.944Z,5.00
2023-03-07T14:22:03.906Z,4.95
2023-03-07T14:25:04.887Z,5.53
2023-03-07T14:27:47.402Z,4.57
2023-03-07T14:30:16.547Z,4.97
2023-03-07T14:32:43.836Z,4.60
2023-03-07T14:35:15.382Z,5.15
2023-03-07T14:37:45.349Z,5.22
2023-03-07T14:41:02.613Z,4.88
2023-03-07T14:43:37.344Z,4.47
2023-03-07T14:46:48.826Z,5.68
2023-03-07T14:49:43.396Z,4.72
2023-03-07T14:52:30.038Z,4.80
2023-03-07T14:55:02.202Z,5.05
2023-03-07T14:57:40.025Z,4.57
2023-03-07T15:00:25.967Z,5.13
2023-03-07T15:03:04.506Z,5.05
2023-03-07T15:05:55.129Z,4.93
2023-03-07T15:08:30.810Z,4.78
2023-03-07T15:11:33.344Z,4.97
2023-03-07T15:14:29.563Z,4.38
2023-03-07T15:17:08.276Z,4.18
2023-03-07T15:19:48.543Z,4.70
2023-03-07T15:22:26.325Z,4.60
2023-03-07T15:24:53.876Z,4.40
2023-03-07T15:27:30.641Z,5.28
2023-03-07T15:30:00.955Z,3.90
2023-03-07T15:32:38.998Z,4.50
2023-03-07T15:35:09.043Z,4.47
2023-03-07T15:37:52.716Z,4.10
2023-03-07T15:40:36.313Z,3.55
2023-03-07T15:43:04.515Z,4.07
2023-03-07T15:45:40.403Z,4.53
2023-03-07T15:48:25.017Z,4.18
2023-03-07T15:50:56.427Z,4.15
2023-03-07T15:53:32.304Z,3.70
2023-03-07T15:56:07.991Z,3.75
2023-03-07T15:58:37.269Z,4.57
2023-03-07T16:01:25.447Z,7.68
2023-03-07T16:03:58.215Z,4.60
2023-03-07T16:06:45.781Z,5.53
2023-03-07T16:09:17.474Z,4.80
2023-03-07T16:11:46.600Z,3.75
2023-03-07T16:14:32.689Z,3.50
2023-03-07T16:17:31.945Z,3.35
2023-03-07T16:19:59.108Z,3.75
2023-03-07T16:22:26.155Z,3.50
2023-03-07T16:24:53.203Z,3.78
2023-03-07T16:27:25.718Z,3.72
2023-03-07T16:29:53.807Z,3.60
2023-03-07T16:32:22.972Z,3.72
2023-03-07T16:34:51.006Z,3.88
2023-03-07T16:37:18.210Z,3.95
2023-03-07T16:39:45.144Z,3.55
2023-03-07T16:42:22.563Z,4.20
2023-03-07T16:44:51.657Z,3.72
2023-03-07T16:47:19.072Z,3.72
2023-03-07T16:49:50.876Z,4.22
2023-03-07T16:52:17.772Z,4.03
2023-03-07T16:54:44.754Z,4.05
2023-03-07T16:57:17.064Z,5.03
2023-03-07T16:59:47.315Z,4.57
2023-03-07T17:02:19.336Z,4.22
2023-03-07T17:04:46.934Z,4.32
2023-03-07T17:07:18.255Z,4.72
2023-03-07T17:09:46.230Z,4.00
2023-03-07T17:12:14.059Z,3.72
2023-03-07T17:14:42.474Z,4.13
2023-03-07T17:17:18.109Z,4.43
2023-03-07T17:19:46.057Z,4.28
2023-03-07T17:22:13.448Z,4.18
2023-03-07T17:24:40.816Z,4.20
2023-03-07T17:27:08.743Z,4.72
2023-03-07T17:29:39.311Z,4.72
2023-03-07T17:32:07.335Z,4.85
2023-03-07T17:34:36.154Z,5.30
2023-03-07T17:37:04.736Z,5.53
2023-03-07T17:39:34.319Z,4.80
2023-03-07T17:42:02.565Z,4.55
2023-03-07T17:44:30.586Z,3.90
2023-03-07T17:46:58.416Z,3.85
2023-03-07T17:49:31.594Z,3.45
2023-03-07T17:51:58.628Z,3.63
2023-03-07T17:54:25.895Z,3.50
2023-03-07T17:56:52.840Z,2.35
2023-03-07T17:59:19.817Z,3.00
2023-03-07T18:01:46.764Z,2.50
2023-03-07T18:04:13.952Z,2.17
2023-03-07T18:06:41.187Z,2.20
2023-03-07T18:09:08.376Z,1.63
2023-03-07T18:11:35.781Z,2.00
2023-03-07T18:14:03.635Z,1.88
2023-03-07T18:16:31.388Z,2.03
2023-03-07T18:19:00.692Z,1.70
2023-03-07T18:21:30.392Z,1.45
2023-03-07T18:23:58.402Z,1.60
2023-03-07T18:26:25.586Z,1.70
2023-03-07T18:28:53.770Z,1.63
2023-03-07T18:31:28.550Z,1.40
2023-03-07T18:33:56.188Z,1.70
2023-03-07T18:36:27.620Z,1.30
2023-03-07T18:38:54.751Z,1.42
2023-03-07T18:41:24.812Z,1.48
2023-03-07T18:43:54.758Z,1.92
2023-03-07T18:46:25.067Z,1.77
2023-03-07T18:48:52.666Z,2.03
2023-03-07T18:51:26.663Z,2.28
2023-03-07T18:54:03.640Z,2.25
2023-03-07T18:56:30.831Z,3.47
2023-03-07T18:58:59.108Z,3.47
2023-03-07T19:01:30.143Z,3.28
2023-03-07T19:04:03.003Z,2.60
2023-03-07T19:06:40.653Z,3.20
2023-03-07T19:09:15.141Z,3.10
2023-03-07T19:11:42.812Z,4.15
2023-03-07T19:14:09.842Z,4.45
2023-03-07T19:16:37.177Z,3.75
2023-03-07T19:19:05.076Z,3.55
2023-03-07T19:21:32.948Z,4.28
2023-03-07T19:24:02.912Z,4.30
2023-03-07T19:26:30.547Z,4.50
2023-03-07T19:28:58.091Z,4.10
2023-03-07T19:31:30.085Z,3.50
2023-03-07T19:33:58.641Z,3.45
2023-03-07T19:36:29.079Z,3.33
2023-03-07T19:38:59.272Z,3.33
2023-03-07T19:41:29.574Z,3.45
2023-03-07T19:44:00.514Z,3.33
2023-03-07T19:46:28.436Z,3.58
2023-03-07T19:48:56.028Z,3.72
2023-03-07T19:51:26.893Z,4.72
2023-03-07T19:53:57.351Z,3.85
2023-03-07T19:56:29.091Z,3.85
2023-03-07T19:58:59.417Z,4.78
2023-03-07T20:01:29.763Z,4.28
2023-03-07T20:03:57.492Z,4.22
2023-03-07T20:06:31.099Z,4.57
2023-03-07T20:09:00.625Z,3.67
2023-03-07T20:11:31.788Z,3.72
2023-03-07T20:14:02.461Z,4.50
2023-03-07T20:16:32.696Z,4.32
2023-03-07T20:19:04.997Z,4.45
2023-03-07T20:21:36.542Z,4.75
2023-03-07T20:24:05.158Z,4.18
2023-03-07T20:26:39.458Z,4.40
2023-03-07T20:29:09.963Z,3.87
2023-03-07T20:31:39.517Z,4.50
2023-03-07T20:34:08.162Z,3.90
2023-03-07T20:36:37.729Z,4.40
2023-03-07T20:39:10.083Z,5.35
2023-03-07T20:41:37.457Z,5.20
2023-03-07T20:44:09.101Z,5.68
2023-03-07T20:46:37.977Z,5.00
2023-03-07T20:49:06.005Z,6.20
2023-03-07T20:51:36.355Z,5.28
2023-03-07T20:54:26.119Z,5.05
2023-03-07T20:56:54.382Z,5.40
2023-03-07T20:59:23.743Z,5.45
2023-03-07T21:01:51.053Z,4.93
2023-03-07T21:04:21.072Z,5.35
2023-03-07T21:06:49.623Z,5.20
2023-03-07T21:09:19.298Z,5.28
2023-03-07T21:11:49.928Z,4.97
2023-03-07T21:14:19.482Z,4.63
2023-03-07T21:16:46.871Z,5.07
2023-03-07T21:19:14.782Z,4.78
2023-03-07T21:21:42.959Z,5.28
2023-03-07T21:24:12.458Z,6.05
2023-03-07T21:26:39.827Z,5.70
2023-03-07T21:29:09.161Z,6.32
2023-03-07T21:31:38.843Z,6.40
2023-03-07T21:34:11.281Z,6.22
2023-03-07T21:36:39.028Z,5.85
2023-03-07T21:39:10.119Z,5.38
2023-03-07T21:41:37.914Z,5.47
2023-03-07T21:44:06.140Z,4.70
2023-03-07T21:46:33.344Z,5.95
2023-03-07T21:49:01.718Z,6.30
2023-03-07T21:51:28.825Z,5.68
2023-03-07T21:53:55.790Z,6.00
2023-03-07T21:56:23.878Z,6.30
2023-03-07T21:58:51.848Z,5.05
2023-03-07T22:01:29.122Z,5.85
2023-03-07T22:03:59.232Z,5.50
2023-03-07T22:06:27.867Z,5.63
2023-03-07T22:08:54.989Z,4.93
2023-03-07T22:11:22.624Z,5.40
2023-03-07T22:13:50.165Z,4.75
2023-03-07T22:16:23.477Z,5.75
2023-03-07T22:18:57.291Z,5.97
2023-03-07T22:21:27.696Z,5.10
2023-03-07T22:23:58.063Z,5.50
2023-03-07T22:26:25.856Z,5.65
2023-03-07T22:28:53.744Z,5.90
2023-03-07T22:31:20.677Z,5.75
2023-03-07T22:33:48.038Z,6.47
2023-03-07T22:36:15.677Z,6.75
2023-03-07T22:38:44.725Z,6.20
2023-03-07T22:41:17.226Z,7.28
2023-03-07T22:43:44.287Z,7.40
2023-03-07T22:46:12.087Z,7.32
2023-03-07T22:48:40.032Z,7.88
2023-03-07T22:51:18.080Z,7.32
2023-03-07T22:53:45.112Z,6.10
2023-03-07T22:56:23.880Z,3.28
2023-03-07T22:58:51.140Z,2.80
2023-03-07T23:01:27.941Z,2.28
2023-03-07T23:03:57.126Z,1.70
2023-03-07T23:06:30.696Z,2.30
2023-03-07T23:08:59.624Z,1.55
2023-03-07T23:11:29.979Z,1.70
2023-03-07T23:13:57.511Z,2.03
2023-03-07T23:16:30.110Z,1.80
2023-03-07T23:18:59.186Z,2.10
2023-03-07T23:21:30.047Z,1.80
2023-03-07T23:23:59.368Z,1.33
2023-03-07T23:26:33.580Z,1.58
2023-03-07T23:29:01.336Z,1.40
2023-03-07T23:31:33.225Z,1.40
2023-03-07T23:34:22.619Z,1.60
2023-03-07T23:36:49.757Z,1.33
2023-03-07T23:39:17.530Z,1.50
2023-03-07T23:41:44.683Z,1.60
2023-03-07T23:44:12.444Z,1.52
2023-03-07T23:46:39.758Z,1.40
2023-03-07T23:49:06.832Z,1.30
2023-03-07T23:51:33.930Z,2.20
2023-03-07T23:54:00.904Z,1.70
2023-03-07T23:56:27.895Z,1.00
2023-03-07T23:58:54.913Z,1.50
